Flight Information

DEPARTURE
DENVER, CO
Elevation:
5884
Runways:
10/28 - 4800x75 - ASPH-G
17L/35R - 10001x100 - ASPH-G
17R/35L - 7001x75 - ASPH-G
Active PE Departure:
35L - 35R
Current PE ATIS:
R
Altimeter:
29.60
Remarks:
ATIS:
120.3 303-799-6722
Clearance Delivery:
128.6
Ground:
121.8
Tower:
CENTENNIAL TOWER 118.9
DESTINATION
,
Elevation:
TPA:
1000 (est.)


6083.4 NM80° True-11° Var69° HDG

Flight Plan:
(click to file on line)

1. Type
2. Aircraft Identification
3. Aircraft Type / Special Equipment
4. True Airspeed
kts
5. Departure Airport
(ICAO code)
6. Arriving Airport
(ICAO code)
7. Cruising Altitude
ft
8. Alternate Airport
(ICAO code)
9. Route of Flight
10. Remarks


00:00:00 Departure ATIS: Destination ATIS:

Clearance Limit:
Route:
Altitude: Expect in minutes
Frequency:
Transponder: (7500 Hijack / 7600 Lost Comms / 7700 Emergency)


KAPA 252053Z 35006KT 10SM SCT030 SCT100 BKN160 01/M08 A2960 RMK AO2 SLP050 T00111078 55014
Time: 2021-01-25T20:53:00Z
1611609919
Winds: 350 @ 6 kts
Visibility: 10.0 sm
Clouds (AGL): SCT 3000
SCT 10000
BKN 16000
Temperature: 1.1 C
Dew Point: -7.8 C
Pressure: 29.601377 in Hgbr


Notes:

Data extracted from FAA Digital Chart Supplement. Effective: 0901Z Thursday, Dec 31, 2020 to 0901Z Thursday, Jan 28, 2021
Current ATIS data is provided courtisy of PilotEdge.